createdAt,value
2023-02-12T00:00:36.313Z,1135.00
2023-02-12T00:01:36.310Z,1140.00
2023-02-12T00:02:36.362Z,1141.00
2023-02-12T00:03:36.350Z,1140.00
2023-02-12T00:04:36.273Z,1138.00
2023-02-12T00:05:36.400Z,1134.00
2023-02-12T00:06:36.251Z,1132.00
2023-02-12T00:07:36.251Z,1131.00
2023-02-12T00:08:36.247Z,1130.00
2023-02-12T00:09:36.226Z,1130.00
2023-02-12T00:10:36.216Z,1135.00
2023-02-12T00:11:36.352Z,1139.00
2023-02-12T00:12:36.191Z,1134.00
2023-02-12T00:13:36.211Z,1130.00
2023-02-12T00:14:36.181Z,1133.00
2023-02-12T00:15:36.206Z,1133.00
2023-02-12T00:16:36.155Z,1155.00
2023-02-12T00:17:36.265Z,1154.00
2023-02-12T00:18:36.146Z,1146.00
2023-02-12T00:19:36.333Z,1135.00
2023-02-12T00:20:36.117Z,1120.00
2023-02-12T00:21:36.108Z,1116.00
2023-02-12T00:22:36.091Z,1123.00
2023-02-12T00:23:36.227Z,1123.00
2023-02-12T00:24:36.063Z,1124.00
2023-02-12T00:25:36.083Z,1124.00
2023-02-12T00:26:36.044Z,1126.00
2023-02-12T00:27:36.031Z,1123.00
2023-02-12T00:28:36.089Z,1117.00
2023-02-12T00:29:36.167Z,1117.00
2023-02-12T00:30:36.056Z,1112.00
2023-02-12T00:31:36.090Z,1114.00
2023-02-12T00:32:35.984Z,1113.00
2023-02-12T00:33:35.991Z,1114.00
2023-02-12T00:34:35.965Z,1114.00
2023-02-12T00:35:36.140Z,1111.00
2023-02-12T00:36:35.944Z,1106.00
2023-02-12T00:37:35.935Z,1101.00
2023-02-12T00:38:35.923Z,1098.00
2023-02-12T00:39:35.902Z,1098.00
2023-02-12T00:40:35.892Z,1092.00
2023-02-12T00:41:36.082Z,1089.00
2023-02-12T00:42:35.876Z,1083.00
2023-02-12T00:43:35.896Z,1082.00
2023-02-12T00:44:35.881Z,1079.00
2023-02-12T00:45:35.839Z,1072.00
2023-02-12T00:46:35.847Z,1065.00
2023-02-12T00:47:36.035Z,1063.00
2023-02-12T00:48:35.813Z,1066.00
2023-02-12T00:49:35.817Z,1065.00
2023-02-12T00:50:35.797Z,1061.00
2023-02-12T00:51:35.777Z,1062.00
2023-02-12T00:52:35.773Z,1064.00
2023-02-12T00:53:35.988Z,1061.00
2023-02-12T00:54:35.749Z,1057.00
2023-02-12T00:55:35.752Z,1051.00
2023-02-12T00:56:35.728Z,1050.00
2023-02-12T00:57:35.717Z,1047.00
2023-02-12T00:58:35.734Z,1046.00
2023-02-12T00:59:35.867Z,1045.00
2023-02-12T01:00:35.686Z,1045.00
2023-02-12T01:01:35.742Z,1045.00
2023-02-12T01:02:35.663Z,1040.00
2023-02-12T01:03:35.650Z,1038.00
2023-02-12T01:04:35.671Z,1033.00
2023-02-12T01:05:35.757Z,1037.00
2023-02-12T01:06:35.625Z,1034.00
2023-02-12T01:07:35.716Z,1033.00
2023-02-12T01:08:35.608Z,1032.00
2023-02-12T01:09:35.604Z,1029.00
2023-02-12T01:10:35.585Z,1028.00
2023-02-12T01:11:35.722Z,1020.00
2023-02-12T01:12:35.567Z,1020.00
2023-02-12T01:13:35.560Z,1013.00
2023-02-12T01:14:35.545Z,1012.00
2023-02-12T01:15:35.596Z,1008.00
2023-02-12T01:16:35.586Z,1008.00
2023-02-12T01:17:35.662Z,1005.00
2023-02-12T01:18:35.505Z,998.00
2023-02-12T01:19:35.496Z,994.00
2023-02-12T01:20:35.485Z,995.00
2023-02-12T01:21:35.479Z,993.00
2023-02-12T01:22:35.472Z,991.00
2023-02-12T01:23:35.602Z,991.00
2023-02-12T01:24:35.434Z,992.00
2023-02-12T01:25:35.421Z,989.00
2023-02-12T01:26:35.417Z,990.00
2023-02-12T01:27:35.399Z,988.00
2023-02-12T01:28:35.541Z,984.00
2023-02-12T01:29:35.414Z,982.00
2023-02-12T01:30:35.410Z,975.00
2023-02-12T01:31:35.554Z,967.00
2023-02-12T01:32:35.345Z,967.00
2023-02-12T01:33:35.341Z,966.00
2023-02-12T01:34:35.350Z,967.00
2023-02-12T01:35:35.496Z,967.00
2023-02-12T01:36:35.324Z,966.00
2023-02-12T01:37:35.294Z,962.00
2023-02-12T01:38:35.296Z,960.00
2023-02-12T01:39:35.273Z,959.00
2023-02-12T01:40:35.265Z,958.00
2023-02-12T01:41:35.403Z,955.00
2023-02-12T01:42:35.245Z,954.00
2023-02-12T01:43:35.229Z,950.00
2023-02-12T01:44:35.229Z,945.00
2023-02-12T01:45:35.209Z,949.00
2023-02-12T01:46:35.300Z,948.00
2023-02-12T01:47:35.324Z,949.00
2023-02-12T01:48:35.179Z,944.00
2023-02-12T01:49:35.170Z,944.00
2023-02-12T01:50:35.177Z,942.00
2023-02-12T01:51:35.149Z,939.00
2023-02-12T01:52:35.150Z,937.00
2023-02-12T01:53:35.389Z,937.00
2023-02-12T01:54:35.121Z,936.00
2023-02-12T01:55:35.101Z,932.00
2023-02-12T01:56:35.099Z,929.00
2023-02-12T01:57:35.097Z,926.00
2023-02-12T01:58:35.109Z,924.00
2023-02-12T01:59:35.219Z,923.00
2023-02-12T02:00:35.054Z,919.00
2023-02-12T02:01:35.050Z,920.00
2023-02-12T02:02:35.037Z,919.00
2023-02-12T02:03:35.099Z,918.00
2023-02-12T02:04:35.015Z,916.00
2023-02-12T02:05:35.133Z,916.00
2023-02-12T02:06:34.997Z,913.00
2023-02-12T02:07:34.977Z,914.00
2023-02-12T02:08:34.989Z,912.00
2023-02-12T02:09:34.969Z,914.00
2023-02-12T02:10:34.950Z,911.00
2023-02-12T02:11:35.078Z,910.00
2023-02-12T02:12:34.928Z,911.00
2023-02-12T02:13:34.907Z,908.00
2023-02-12T02:14:34.944Z,907.00
2023-02-12T02:15:34.898Z,910.00
2023-02-12T02:16:34.998Z,906.00
2023-02-12T02:17:34.999Z,905.00
2023-02-12T02:18:34.875Z,903.00
2023-02-12T02:19:34.854Z,903.00
2023-02-12T02:20:34.860Z,901.00
2023-02-12T02:21:34.826Z,900.00
2023-02-12T02:22:34.815Z,894.00
2023-02-12T02:23:34.931Z,896.00
2023-02-12T02:24:34.801Z,894.00
2023-02-12T02:25:34.781Z,894.00
2023-02-12T02:26:34.784Z,891.00
2023-02-12T02:27:34.755Z,889.00
2023-02-12T02:28:34.799Z,890.00
2023-02-12T02:29:34.861Z,891.00
2023-02-12T02:30:34.783Z,889.00
2023-02-12T02:31:34.877Z,888.00
2023-02-12T02:32:34.722Z,887.00
2023-02-12T02:33:34.697Z,885.00
2023-02-12T02:34:34.686Z,885.00
2023-02-12T02:35:34.823Z,881.00
2023-02-12T02:36:34.663Z,880.00
2023-02-12T02:37:34.652Z,878.00
2023-02-12T02:38:34.720Z,879.00
2023-02-12T02:39:34.657Z,876.00
2023-02-12T02:40:34.626Z,873.00
2023-02-12T02:41:34.733Z,870.00
2023-02-12T02:42:34.603Z,868.00
2023-02-12T02:43:34.586Z,869.00
2023-02-12T02:44:34.590Z,869.00
2023-02-12T02:45:34.588Z,867.00
2023-02-12T02:46:34.629Z,869.00
2023-02-12T02:47:34.698Z,866.00
2023-02-12T02:48:34.539Z,862.00
2023-02-12T02:49:34.524Z,860.00
2023-02-12T02:50:34.514Z,860.00
2023-02-12T02:51:34.503Z,859.00
2023-02-12T02:52:34.494Z,857.00
2023-02-12T02:53:34.641Z,857.00
2023-02-12T02:54:34.480Z,853.00
2023-02-12T02:55:34.460Z,852.00
2023-02-12T02:56:34.458Z,851.00
2023-02-12T02:57:34.471Z,850.00
2023-02-12T02:58:34.437Z,850.00
2023-02-12T02:59:34.578Z,848.00
2023-02-12T03:00:34.446Z,850.00
2023-02-12T03:01:34.402Z,847.00
2023-02-12T03:02:34.390Z,848.00
2023-02-12T03:03:34.378Z,846.00
2023-02-12T03:04:34.385Z,846.00
2023-02-12T03:05:34.497Z,844.00
2023-02-12T03:06:34.343Z,841.00
2023-02-12T03:07:34.340Z,840.00
2023-02-12T03:08:34.424Z,834.00
2023-02-12T03:09:34.312Z,834.00
2023-02-12T03:10:34.308Z,832.00
2023-02-12T03:11:34.447Z,831.00
2023-02-12T03:12:34.285Z,832.00
2023-02-12T03:13:34.273Z,835.00
2023-02-12T03:14:34.261Z,834.00
2023-02-12T03:15:34.254Z,832.00
2023-02-12T03:16:34.266Z,834.00
2023-02-12T03:17:34.356Z,836.00
2023-02-12T03:18:34.223Z,838.00
2023-02-12T03:19:34.203Z,838.00
2023-02-12T03:20:34.200Z,838.00
2023-02-12T03:21:34.185Z,839.00
2023-02-12T03:22:34.184Z,838.00
2023-02-12T03:23:34.299Z,837.00
2023-02-12T03:24:34.161Z,839.00
2023-02-12T03:25:34.151Z,840.00
2023-02-12T03:26:34.140Z,837.00
2023-02-12T03:27:34.129Z,840.00
2023-02-12T03:28:34.231Z,841.00
2023-02-12T03:29:34.197Z,838.00
2023-02-12T03:30:34.165Z,838.00
2023-02-12T03:31:34.141Z,837.00
2023-02-12T03:32:34.082Z,835.00
2023-02-12T03:33:34.060Z,835.00
2023-02-12T03:34:34.053Z,839.00
2023-02-12T03:35:34.265Z,841.00
2023-02-12T03:36:34.036Z,839.00
2023-02-12T03:37:34.025Z,840.00
2023-02-12T03:38:34.028Z,838.00
2023-02-12T03:39:34.004Z,839.00
2023-02-12T03:40:34.000Z,839.00
2023-02-12T03:41:34.126Z,838.00
2023-02-12T03:42:33.974Z,835.00
2023-02-12T03:43:33.960Z,833.00
2023-02-12T03:44:33.956Z,832.00
2023-02-12T03:45:34.021Z,826.00
2023-02-12T03:46:33.940Z,823.00
2023-02-12T03:47:34.170Z,822.00
2023-02-12T03:48:33.945Z,820.00
2023-02-12T03:49:33.894Z,819.00
2023-02-12T03:50:33.889Z,820.00
2023-02-12T03:51:33.868Z,819.00
2023-02-12T03:52:33.864Z,818.00
2023-02-12T03:53:34.006Z,818.00
2023-02-12T03:54:33.843Z,821.00
2023-02-12T03:55:33.849Z,821.00
2023-02-12T03:56:33.826Z,821.00
2023-02-12T03:57:33.807Z,819.00
2023-02-12T03:58:33.814Z,816.00
2023-02-12T03:59:33.941Z,812.00
2023-02-12T04:00:33.787Z,811.00
2023-02-12T04:01:33.869Z,811.00
2023-02-12T04:02:33.756Z,809.00
2023-02-12T04:03:33.738Z,807.00
2023-02-12T04:04:33.848Z,807.00
2023-02-12T04:05:33.849Z,804.00
2023-02-12T04:06:33.761Z,804.00
2023-02-12T04:07:33.700Z,803.00
2023-02-12T04:08:33.692Z,802.00
2023-02-12T04:09:33.681Z,802.00
2023-02-12T04:10:33.671Z,801.00
2023-02-12T04:11:33.834Z,803.00
2023-02-12T04:12:33.645Z,802.00
2023-02-12T04:13:33.639Z,804.00
2023-02-12T04:14:33.621Z,805.00
2023-02-12T04:15:33.618Z,803.00
2023-02-12T04:16:35.730Z,804.00
2023-02-12T04:17:33.747Z,802.00
2023-02-12T04:18:33.592Z,800.00
2023-02-12T04:19:33.575Z,797.00
2023-02-12T04:20:33.557Z,798.00
2023-02-12T04:21:33.565Z,798.00
2023-02-12T04:22:33.539Z,796.00
2023-02-12T04:23:33.688Z,797.00
2023-02-12T04:24:33.530Z,796.00
2023-02-12T04:25:33.522Z,795.00
2023-02-12T04:26:33.495Z,795.00
2023-02-12T04:27:33.500Z,796.00
2023-02-12T04:28:33.516Z,795.00
2023-02-12T04:29:33.614Z,796.00
2023-02-12T04:30:33.570Z,791.00
2023-02-12T04:31:33.641Z,792.00
2023-02-12T04:32:33.439Z,792.00
2023-02-12T04:33:33.434Z,787.00
2023-02-12T04:34:33.415Z,787.00
2023-02-12T04:35:33.530Z,785.00
2023-02-12T04:36:33.410Z,784.00
2023-02-12T04:37:33.398Z,785.00
2023-02-12T04:38:33.380Z,785.00
2023-02-12T04:39:33.375Z,786.00
2023-02-12T04:40:33.357Z,783.00
2023-02-12T04:41:33.504Z,784.00
2023-02-12T04:42:33.331Z,783.00
2023-02-12T04:43:36.041Z,782.00
2023-02-12T04:44:33.313Z,781.00
2023-02-12T04:45:33.309Z,779.00
2023-02-12T04:46:33.340Z,777.00
2023-02-12T04:47:33.455Z,777.00
2023-02-12T04:48:33.276Z,776.00
2023-02-12T04:49:33.281Z,777.00
2023-02-12T04:50:35.132Z,777.00
2023-02-12T04:51:33.241Z,774.00
2023-02-12T04:52:34.222Z,776.00
2023-02-12T04:53:33.376Z,780.00
2023-02-12T04:54:33.217Z,776.00
2023-02-12T04:55:33.214Z,772.00
2023-02-12T04:56:33.183Z,772.00
2023-02-12T04:57:33.175Z,770.00
2023-02-12T04:58:33.176Z,769.00
2023-02-12T04:59:33.300Z,772.00
2023-02-12T05:00:33.146Z,772.00
2023-02-12T05:01:33.206Z,770.00
2023-02-12T05:02:33.127Z,772.00
2023-02-12T05:03:33.112Z,779.00
2023-02-12T05:04:33.103Z,779.00
2023-02-12T05:05:33.222Z,777.00
2023-02-12T05:06:33.081Z,780.00
2023-02-12T05:07:33.081Z,782.00
2023-02-12T05:08:33.062Z,784.00
2023-02-12T05:09:33.058Z,785.00
2023-02-12T05:10:33.040Z,787.00
2023-02-12T05:11:33.163Z,788.00
2023-02-12T05:12:33.019Z,790.00
2023-02-12T05:13:33.014Z,793.00
2023-02-12T05:14:33.011Z,793.00
2023-02-12T05:15:33.015Z,797.00
2023-02-12T05:16:32.977Z,796.00
2023-02-12T05:17:33.123Z,797.00
2023-02-12T05:18:32.952Z,799.00
2023-02-12T05:19:32.952Z,803.00
2023-02-12T05:20:32.933Z,804.00
2023-02-12T05:21:32.934Z,805.00
2023-02-12T05:22:32.926Z,805.00
2023-02-12T05:23:33.077Z,804.00
2023-02-12T05:24:32.930Z,802.00
2023-02-12T05:25:32.887Z,802.00
2023-02-12T05:26:32.876Z,803.00
2023-02-12T05:27:32.860Z,802.00
2023-02-12T05:28:32.938Z,805.00
2023-02-12T05:29:32.986Z,807.00
2023-02-12T05:30:32.828Z,807.00
2023-02-12T05:31:32.927Z,807.00
2023-02-12T05:32:32.816Z,805.00
2023-02-12T05:33:32.801Z,807.00
2023-02-12T05:34:32.778Z,806.00
2023-02-12T05:35:32.932Z,806.00
2023-02-12T05:36:32.758Z,809.00
2023-02-12T05:37:32.757Z,809.00
2023-02-12T05:38:32.743Z,806.00
2023-02-12T05:39:32.734Z,806.00
2023-02-12T05:40:32.732Z,805.00
2023-02-12T05:41:32.746Z,805.00
2023-02-12T05:42:32.700Z,806.00
2023-02-12T05:43:32.720Z,807.00
2023-02-12T05:44:32.685Z,808.00
2023-02-12T05:45:32.679Z,805.00
2023-02-12T05:46:32.738Z,806.00
2023-02-12T05:47:32.829Z,805.00
2023-02-12T05:48:32.639Z,806.00
2023-02-12T05:49:32.628Z,806.00
2023-02-12T05:50:32.615Z,809.00
2023-02-12T05:51:32.607Z,807.00
2023-02-12T05:52:32.594Z,806.00
2023-02-12T05:53:32.730Z,806.00
2023-02-12T05:54:32.577Z,807.00
2023-02-12T05:55:32.571Z,810.00
2023-02-12T05:56:32.556Z,808.00
2023-02-12T05:57:32.549Z,807.00
2023-02-12T05:58:32.527Z,807.00
2023-02-12T05:59:32.669Z,806.00
2023-02-12T06:00:32.517Z,806.00
2023-02-12T06:01:32.501Z,808.00
2023-02-12T06:02:32.508Z,806.00
2023-02-12T06:03:32.482Z,805.00
2023-02-12T06:04:32.462Z,806.00
2023-02-12T06:05:32.654Z,805.00
2023-02-12T06:06:32.446Z,807.00
2023-02-12T06:07:32.444Z,806.00
2023-02-12T06:08:32.423Z,808.00
2023-02-12T06:09:32.421Z,808.00
2023-02-12T06:10:32.433Z,807.00
2023-02-12T06:11:32.434Z,806.00
2023-02-12T06:12:32.385Z,806.00
2023-02-12T06:13:32.381Z,803.00
2023-02-12T06:14:32.372Z,804.00
2023-02-12T06:15:32.351Z,803.00
2023-02-12T06:16:32.445Z,804.00
2023-02-12T06:17:32.484Z,803.00
2023-02-12T06:18:32.264Z,803.00
2023-02-12T06:19:32.309Z,804.00
2023-02-12T06:20:32.293Z,803.00
2023-02-12T06:21:32.246Z,806.00
2023-02-12T06:22:32.221Z,806.00
2023-02-12T06:23:32.380Z,806.00
2023-02-12T06:24:32.201Z,810.00
2023-02-12T06:25:32.188Z,809.00
2023-02-12T06:26:32.181Z,810.00
2023-02-12T06:27:32.181Z,809.00
2023-02-12T06:28:32.180Z,810.00
2023-02-12T06:29:32.301Z,807.00
2023-02-12T06:30:32.146Z,807.00
2023-02-12T06:31:32.304Z,807.00
2023-02-12T06:32:32.153Z,809.00
2023-02-12T06:33:32.120Z,809.00
2023-02-12T06:34:32.097Z,809.00
2023-02-12T06:35:32.223Z,810.00
2023-02-12T06:36:32.074Z,810.00
2023-02-12T06:37:32.084Z,810.00
2023-02-12T06:38:32.057Z,814.00
2023-02-12T06:39:32.049Z,815.00
2023-02-12T06:40:32.055Z,815.00
2023-02-12T06:41:32.077Z,817.00
2023-02-12T06:42:33.175Z,816.00
2023-02-12T06:43:32.011Z,818.00
2023-02-12T06:44:32.001Z,815.00
2023-02-12T06:45:32.041Z,814.00
2023-02-12T06:46:32.017Z,812.00
2023-02-12T06:47:32.117Z,813.00
2023-02-12T06:48:31.945Z,811.00
2023-02-12T06:49:31.962Z,814.00
2023-02-12T06:50:31.929Z,810.00
2023-02-12T06:51:31.924Z,810.00
2023-02-12T06:52:31.914Z,811.00
2023-02-12T06:53:32.029Z,811.00
2023-02-12T06:54:31.886Z,810.00
2023-02-12T06:55:31.880Z,807.00
2023-02-12T06:56:31.884Z,808.00
2023-02-12T06:57:31.880Z,806.00
2023-02-12T06:58:31.866Z,805.00
2023-02-12T07:01:45.474Z,833.00
2023-02-12T07:02:46.420Z,805.00
2023-02-12T07:03:46.419Z,808.00
2023-02-12T07:04:46.395Z,811.00
2023-02-12T07:05:46.533Z,812.00
2023-02-12T07:06:46.377Z,810.00
2023-02-12T07:07:46.360Z,813.00
2023-02-12T07:08:46.350Z,813.00
2023-02-12T07:09:46.357Z,812.00
2023-02-12T07:10:46.331Z,811.00
2023-02-12T07:11:46.361Z,806.00
2023-02-12T07:12:46.312Z,806.00
2023-02-12T07:13:46.310Z,805.00
2023-02-12T07:14:46.300Z,805.00
2023-02-12T07:15:46.286Z,805.00
2023-02-12T07:16:46.348Z,806.00
2023-02-12T07:17:46.412Z,807.00
2023-02-12T07:18:46.261Z,807.00
2023-02-12T07:19:46.237Z,812.00
2023-02-12T07:20:46.228Z,816.00
2023-02-12T07:21:46.212Z,817.00
2023-02-12T07:22:46.200Z,818.00
2023-02-12T07:23:47.948Z,822.00
2023-02-12T07:24:46.224Z,835.00
2023-02-12T07:25:46.173Z,831.00
2023-02-12T07:26:46.189Z,834.00
2023-02-12T07:27:46.149Z,827.00
2023-02-12T07:28:46.206Z,824.00
2023-02-12T07:29:46.307Z,816.00
2023-02-12T07:30:46.208Z,813.00
2023-02-12T07:31:46.187Z,813.00
2023-02-12T07:32:46.135Z,812.00
2023-02-12T07:33:46.132Z,810.00
2023-02-12T07:34:46.081Z,811.00
2023-02-12T07:35:46.240Z,810.00
2023-02-12T07:36:46.070Z,810.00
2023-02-12T07:37:46.063Z,810.00
2023-02-12T07:38:46.052Z,812.00
2023-02-12T07:39:46.027Z,815.00
2023-02-12T07:40:46.017Z,816.00
2023-02-12T07:41:46.235Z,815.00
2023-02-12T07:42:45.998Z,814.00
2023-02-12T07:43:46.001Z,815.00
2023-02-12T07:44:46.120Z,816.00
2023-02-12T07:45:46.012Z,816.00
2023-02-12T07:46:48.282Z,819.00
2023-02-12T07:47:46.155Z,816.00
2023-02-12T07:48:45.932Z,815.00
2023-02-12T07:49:45.944Z,814.00
2023-02-12T07:50:45.926Z,812.00
2023-02-12T07:51:45.920Z,813.00
2023-02-12T07:52:45.981Z,811.00
2023-02-12T07:53:46.044Z,811.00
2023-02-12T07:54:45.863Z,809.00
2023-02-12T07:55:45.880Z,811.00
2023-02-12T07:56:45.878Z,810.00
2023-02-12T07:57:45.858Z,815.00
2023-02-12T07:58:45.824Z,808.00
2023-02-12T07:59:52.871Z,808.00
2023-02-12T08:00:45.800Z,807.00
2023-02-12T08:01:45.792Z,806.00
2023-02-12T08:02:45.841Z,815.00
2023-02-12T08:03:45.792Z,752.00
2023-02-12T08:04:45.837Z,689.00
2023-02-12T08:05:46.016Z,688.00
2023-02-12T08:06:45.743Z,690.00
2023-02-12T08:07:45.727Z,700.00
2023-02-12T08:08:45.713Z,723.00
2023-02-12T08:09:45.712Z,756.00
2023-02-12T08:10:45.694Z,763.00
2023-02-12T08:11:45.925Z,769.00
2023-02-12T08:12:45.681Z,773.00
2023-02-12T08:13:45.664Z,774.00
2023-02-12T08:14:45.651Z,778.00
2023-02-12T08:15:45.653Z,779.00
2023-02-12T08:16:45.687Z,779.00
2023-02-12T08:17:45.899Z,782.00
2023-02-12T08:18:45.639Z,780.00
2023-02-12T08:19:45.601Z,779.00
2023-02-12T08:20:45.648Z,776.00
2023-02-12T08:21:45.582Z,778.00
2023-02-12T08:22:45.561Z,775.00
2023-02-12T08:23:45.770Z,774.00
2023-02-12T08:24:45.555Z,773.00
2023-02-12T08:25:45.541Z,770.00
2023-02-12T08:26:45.576Z,767.00
2023-02-12T08:27:45.530Z,765.00
2023-02-12T08:28:45.522Z,764.00
2023-02-12T08:29:45.665Z,762.00
2023-02-12T08:30:45.511Z,763.00
2023-02-12T08:31:45.537Z,763.00
2023-02-12T08:32:45.469Z,763.00
2023-02-12T08:33:45.451Z,762.00
2023-02-12T08:34:45.442Z,764.00
2023-02-12T08:35:45.636Z,766.00
2023-02-12T08:36:45.415Z,765.00
2023-02-12T08:37:45.446Z,761.00
2023-02-12T08:38:45.401Z,757.00
2023-02-12T08:39:45.440Z,757.00
2023-02-12T08:40:45.504Z,754.00
2023-02-12T08:41:45.551Z,753.00
2023-02-12T08:42:45.396Z,756.00
2023-02-12T08:43:45.366Z,755.00
2023-02-12T08:44:45.331Z,755.00
2023-02-12T08:45:45.398Z,754.00
2023-02-12T08:47:06.463Z,753.00
2023-02-12T08:47:45.402Z,753.00
2023-02-12T08:48:45.295Z,755.00
2023-02-12T08:49:45.283Z,755.00
2023-02-12T08:50:45.283Z,753.00
2023-02-12T08:51:45.266Z,752.00
2023-02-12T08:52:45.406Z,752.00
2023-02-12T08:53:45.269Z,751.00
2023-02-12T08:54:45.227Z,753.00
2023-02-12T08:55:45.225Z,750.00
2023-02-12T08:56:45.223Z,750.00
2023-02-12T08:57:45.191Z,750.00
2023-02-12T08:58:45.373Z,750.00
2023-02-12T08:59:52.302Z,748.00
2023-02-12T09:00:45.157Z,756.00
2023-02-12T09:01:45.146Z,763.00
2023-02-12T09:02:45.254Z,764.00
2023-02-12T09:03:45.124Z,769.00
2023-02-12T09:04:45.270Z,774.00
2023-02-12T09:05:45.104Z,782.00
2023-02-12T09:06:45.102Z,787.00
2023-02-12T09:07:45.094Z,787.00
2023-02-12T09:08:45.078Z,786.00
2023-02-12T09:09:45.078Z,788.00
2023-02-12T09:10:45.222Z,790.00
2023-02-12T09:11:45.134Z,792.00
2023-02-12T09:12:45.029Z,797.00
2023-02-12T09:13:45.032Z,802.00
2023-02-12T09:14:45.008Z,806.00
2023-02-12T09:15:45.180Z,812.00
2023-02-12T09:16:45.305Z,833.00
2023-02-12T09:17:44.979Z,825.00
2023-02-12T09:18:44.967Z,827.00
2023-02-12T09:19:44.987Z,830.00
2023-02-12T09:20:44.945Z,837.00
2023-02-12T09:21:44.949Z,843.00
2023-02-12T09:22:45.110Z,845.00
2023-02-12T09:23:44.914Z,846.00
2023-02-12T09:24:44.903Z,847.00
2023-02-12T09:25:44.902Z,849.00
2023-02-12T09:26:44.885Z,852.00
2023-02-12T09:27:44.872Z,853.00
2023-02-12T09:28:45.028Z,860.00
2023-02-12T09:29:44.870Z,861.00
2023-02-12T09:30:44.879Z,867.00
2023-02-12T09:31:44.980Z,871.00
2023-02-12T09:32:44.830Z,867.00
2023-02-12T09:33:44.819Z,866.00
2023-02-12T09:34:44.960Z,868.00
2023-02-12T09:35:44.780Z,871.00
2023-02-12T09:36:44.798Z,873.00
2023-02-12T09:37:44.831Z,872.00
2023-02-12T09:38:44.760Z,873.00
2023-02-12T09:39:44.743Z,871.00
2023-02-12T09:40:44.897Z,873.00
2023-02-12T09:41:44.748Z,879.00
2023-02-12T09:42:44.726Z,886.00
2023-02-12T09:43:44.760Z,898.00
2023-02-12T09:44:44.722Z,906.00
2023-02-12T09:45:44.677Z,909.00
2023-02-12T09:46:44.950Z,910.00
2023-02-12T09:47:44.683Z,912.00
2023-02-12T09:48:44.682Z,920.00
2023-02-12T09:49:44.645Z,921.00
2023-02-12T09:50:44.676Z,929.00
2023-02-12T09:51:44.631Z,927.00
2023-02-12T09:52:44.769Z,930.00
2023-02-12T09:53:44.667Z,932.00
2023-02-12T09:54:44.617Z,935.00
2023-02-12T09:55:44.598Z,938.00
2023-02-12T09:56:44.632Z,944.00
2023-02-12T09:57:44.560Z,945.00
2023-02-12T09:58:44.748Z,948.00
2023-02-12T10:00:38.013Z,918.00
2023-02-12T10:01:39.045Z,936.00
2023-02-12T10:02:39.025Z,941.00
2023-02-12T10:03:38.968Z,946.00
2023-02-12T10:04:46.140Z,949.00
2023-02-12T10:05:38.983Z,950.00
2023-02-12T10:06:38.954Z,952.00
2023-02-12T10:07:38.945Z,951.00
2023-02-12T10:08:39.337Z,951.00
2023-02-12T10:09:38.908Z,963.00
2023-02-12T10:10:39.044Z,970.00
2023-02-12T10:11:38.882Z,966.00
2023-02-12T10:12:38.878Z,966.00
2023-02-12T10:13:38.874Z,966.00
2023-02-12T10:14:38.864Z,980.00
2023-02-12T10:15:38.934Z,986.00
2023-02-12T10:16:38.973Z,984.00
2023-02-12T10:17:38.843Z,980.00
2023-02-12T10:18:38.811Z,979.00
2023-02-12T10:19:38.810Z,980.00
2023-02-12T10:20:41.147Z,981.00
2023-02-12T10:21:38.787Z,981.00
2023-02-12T10:22:51.369Z,983.00
2023-02-12T10:23:38.757Z,988.00
2023-02-12T10:24:38.750Z,990.00
2023-02-12T10:25:38.755Z,991.00
2023-02-12T10:26:38.728Z,990.00
2023-02-12T10:27:38.753Z,990.00
2023-02-12T10:28:38.982Z,985.00
2023-02-12T10:29:38.698Z,984.00
2023-02-12T10:30:38.781Z,982.00
2023-02-12T10:31:38.841Z,982.00
2023-02-12T10:32:38.667Z,981.00
2023-02-12T10:33:39.206Z,981.00
2023-02-12T10:34:38.813Z,979.00
2023-02-12T10:35:38.648Z,975.00
2023-02-12T10:36:38.630Z,969.00
2023-02-12T10:37:38.598Z,964.00
2023-02-12T10:38:38.592Z,962.00
2023-02-12T10:39:38.578Z,962.00
2023-02-12T10:40:38.701Z,961.00
2023-02-12T10:41:38.565Z,961.00
2023-02-12T10:42:38.605Z,961.00
2023-02-12T10:43:38.535Z,959.00
2023-02-12T10:44:38.542Z,957.00
2023-02-12T10:45:38.511Z,954.00
2023-02-12T10:46:38.736Z,951.00
2023-02-12T10:47:38.631Z,944.00
2023-02-12T10:48:38.491Z,939.00
2023-02-12T10:49:38.466Z,937.00
2023-02-12T10:50:38.458Z,938.00
2023-02-12T10:51:38.466Z,940.00
2023-02-12T10:52:38.592Z,946.00
2023-02-12T10:53:38.478Z,951.00
2023-02-12T10:54:38.414Z,956.00
2023-02-12T10:55:38.486Z,960.00
2023-02-12T10:56:38.396Z,964.00
2023-02-12T10:57:38.429Z,969.00
2023-02-12T10:58:38.570Z,971.00
2023-02-12T10:59:38.357Z,976.00
2023-02-12T11:00:45.361Z,978.00
2023-02-12T11:01:38.380Z,978.00
2023-02-12T11:02:38.330Z,979.00
2023-02-12T11:03:38.345Z,979.00
2023-02-12T11:04:38.447Z,982.00
2023-02-12T11:05:38.402Z,985.00
2023-02-12T11:06:38.303Z,982.00
2023-02-12T11:07:38.286Z,979.00
2023-02-12T11:08:38.300Z,978.00
2023-02-12T11:09:38.268Z,979.00
2023-02-12T11:10:38.425Z,987.00
2023-02-12T11:11:38.244Z,994.00
2023-02-12T11:12:38.241Z,1005.00
2023-02-12T11:13:38.216Z,1015.00
2023-02-12T11:14:38.224Z,1019.00
2023-02-12T11:15:38.188Z,1024.00
2023-02-12T11:16:38.325Z,1024.00
2023-02-12T11:17:38.174Z,1027.00
2023-02-12T11:18:38.175Z,1032.00
2023-02-12T11:19:38.151Z,1033.00
2023-02-12T11:20:38.148Z,1031.00
2023-02-12T11:21:38.180Z,1032.00
2023-02-12T11:22:38.255Z,1034.00
2023-02-12T11:23:38.170Z,1032.00
2023-02-12T11:24:38.107Z,1030.00
2023-02-12T11:25:38.101Z,1028.00
2023-02-12T11:26:38.130Z,1031.00
2023-02-12T11:27:38.095Z,1032.00
2023-02-12T11:28:38.382Z,1033.00
2023-02-12T11:29:38.075Z,1030.00
2023-02-12T11:30:38.070Z,1025.00
2023-02-12T11:31:38.867Z,1026.00
2023-02-12T11:32:38.032Z,1028.00
2023-02-12T11:33:38.011Z,1032.00
2023-02-12T11:34:38.162Z,1038.00
2023-02-12T11:35:38.529Z,1038.00
2023-02-12T11:36:38.045Z,1040.00
2023-02-12T11:37:37.997Z,1054.00
2023-02-12T11:38:38.006Z,1065.00
2023-02-12T11:39:37.990Z,1044.00
2023-02-12T11:40:38.199Z,1037.00
2023-02-12T11:41:37.912Z,1040.00
2023-02-12T11:42:37.950Z,1041.00
2023-02-12T11:43:38.020Z,1047.00
2023-02-12T11:44:37.929Z,1049.00
2023-02-12T11:45:38.002Z,1057.00
2023-02-12T11:46:38.133Z,1062.00
2023-02-12T11:47:37.859Z,1066.00
2023-02-12T11:48:37.860Z,1071.00
2023-02-12T11:49:37.878Z,1072.00
2023-02-12T11:50:37.828Z,1075.00
2023-02-12T11:51:37.813Z,1081.00
2023-02-12T11:52:37.987Z,1082.00
2023-02-12T11:53:37.789Z,1074.00
2023-02-12T11:54:37.788Z,1073.00
2023-02-12T11:55:37.778Z,1075.00
2023-02-12T11:56:37.771Z,1072.00
2023-02-12T11:57:37.739Z,1070.00
2023-02-12T11:58:37.908Z,1070.00
2023-02-12T11:59:37.828Z,1078.00
2023-02-12T12:00:45.207Z,1088.00
2023-02-12T12:01:37.718Z,1105.00
2023-02-12T12:02:37.699Z,1078.00
2023-02-12T12:03:37.700Z,1078.00
2023-02-12T12:04:37.805Z,1085.00
2023-02-12T12:05:37.660Z,1088.00
2023-02-12T12:06:37.653Z,1130.00
2023-02-12T12:07:37.638Z,1137.00
2023-02-12T12:08:37.635Z,1133.00
2023-02-12T12:09:37.613Z,974.00
2023-02-12T12:10:37.787Z,981.00
2023-02-12T12:11:37.586Z,983.00
2023-02-12T12:12:37.585Z,1060.00
2023-02-12T12:13:37.581Z,1076.00
2023-02-12T12:14:37.563Z,1064.00
2023-02-12T12:15:37.563Z,1037.00
2023-02-12T12:16:37.811Z,1029.00
2023-02-12T12:17:37.532Z,1043.00
2023-02-12T12:18:37.522Z,1052.00
2023-02-12T12:19:37.503Z,1062.00
2023-02-12T12:20:37.511Z,1064.00
2023-02-12T12:21:37.485Z,1066.00
2023-02-12T12:22:37.616Z,1067.00
2023-02-12T12:23:37.467Z,1064.00
2023-02-12T12:24:37.515Z,1064.00
2023-02-12T12:25:37.449Z,1065.00
2023-02-12T12:26:37.451Z,1067.00